Time;durP1;ratioP1;P1;durP2;ratioP2;P2;SDS_P1;SDS_P2;PMS_P1;PMS_P2;Temp;Humidity;BMP_temperature;BMP_pressure;BME280_temperature;BME280_humidity;BME280_pressure;Samples;Min_cycle;Max_cycle;Signal;HPM_P1;HPM_P2
2023/01/21 00:00:05;;;;;;;30.20;12.10;;;;;;;-1.83;96.66;100791.67;109208;1256;67723;-69
2023/01/21 00:03:13;;;;;;;32.10;13.40;;;;;;;-1.86;96.61;100788.95;108367;1256;1003139;-68
2023/01/21 00:06:02;;;;;;;31.70;13.60;;;;;;;-1.88;96.81;100786.02;109189;1256;57321;-69
2023/01/21 00:08:50;;;;;;;31.20;14.50;;;;;;;-1.94;97.25;100779.51;109048;1256;61209;-69
2023/01/21 00:11:38;;;;;;;35.10;14.40;;;;;;;-1.97;97.34;100781.45;109197;1256;73055;-67
2023/01/21 00:14:26;;;;;;;31.30;13.40;;;;;;;-1.94;97.94;100790.62;109430;1253;67575;-68
2023/01/21 00:17:16;;;;;;;31.50;13.90;;;;;;;-1.94;98.05;100795.84;109513;1253;73629;-68
2023/01/21 00:20:05;;;;;;;32.40;13.60;;;;;;;-1.94;98.27;100797.23;109499;1253;58400;-70
2023/01/21 00:22:54;;;;;;;27.50;11.90;;;;;;;-1.93;98.39;100800.70;109385;1252;59040;-70
2023/01/21 00:25:42;;;;;;;24.60;10.30;;;;;;;-1.94;98.82;100802.27;109551;1253;73333;-69
2023/01/21 00:28:32;;;;;;;31.60;11.30;;;;;;;-1.94;99.16;100798.80;109534;1252;66753;-70
2023/01/21 00:31:20;;;;;;;29.80;12.70;;;;;;;-1.93;99.55;100804.53;108624;1253;1015003;-69
2023/01/21 00:34:10;;;;;;;32.40;12.20;;;;;;;-1.93;99.72;100801.20;109509;1253;58032;-71
2023/01/21 00:36:57;;;;;;;24.60;10.80;;;;;;;-1.90;100.00;100803.44;109480;1252;60128;-70
2023/01/21 00:39:46;;;;;;;26.50;11.10;;;;;;;-1.88;100.00;100802.73;109540;1252;72758;-68
2023/01/21 00:42:33;;;;;;;24.40;11.00;;;;;;;-1.86;100.00;100807.04;109587;1252;68714;-71
2023/01/21 00:45:21;;;;;;;29.60;11.30;;;;;;;-1.85;100.00;100804.40;109558;1253;72450;-69
2023/01/21 00:48:09;;;;;;;30.80;13.70;;;;;;;-1.82;100.00;100802.98;109530;1252;57303;-68
2023/01/21 00:50:59;;;;;;;36.50;14.80;;;;;;;-1.79;100.00;100806.92;109537;1253;59972;-69
2023/01/21 00:53:47;;;;;;;29.80;10.30;;;;;;;-1.74;100.00;100804.59;108703;1253;1015550;-68
2023/01/21 00:56:35;;;;;;;32.50;14.40;;;;;;;-1.71;100.00;100803.16;109597;1252;69006;-69
2023/01/21 00:59:26;;;;;;;34.40;14.40;;;;;;;-1.66;100.00;100800.84;109539;1253;71081;-69
2023/01/21 01:02:14;;;;;;;35.30;14.70;;;;;;;-1.62;100.00;100801.30;109405;1253;58880;-69
2023/01/21 01:05:02;;;;;;;30.90;12.30;;;;;;;-1.58;100.00;100801.22;109551;1252;61295;-69
2023/01/21 01:07:49;;;;;;;35.10;13.60;;;;;;;-1.55;100.00;100799.42;109538;1252;73241;-70
2023/01/21 01:10:37;;;;;;;25.10;11.20;;;;;;;-1.55;100.00;100793.88;109582;1253;67685;-69
2023/01/21 01:13:27;;;;;;;25.40;10.80;;;;;;;-1.51;100.00;100795.35;109546;1252;72378;-68
2023/01/21 01:16:15;;;;;;;29.00;11.80;;;;;;;-1.48;100.00;100794.62;109395;1253;57386;-68
2023/01/21 01:19:03;;;;;;;28.70;12.10;;;;;;;-1.46;100.00;100795.45;109509;1253;61533;-71
2023/01/21 01:21:51;;;;;;;23.80;10.20;;;;;;;-1.44;100.00;100801.00;109565;1252;71729;-68
2023/01/21 01:24:39;;;;;;;26.40;10.20;;;;;;;-1.43;100.00;100798.89;109530;1253;67934;-68
2023/01/21 01:27:29;;;;;;;30.40;12.70;;;;;;;-1.43;100.00;100794.17;109581;1252;71064;-68
2023/01/21 01:30:18;;;;;;;29.00;12.40;;;;;;;-1.47;100.00;100786.25;109419;1253;57317;-69
2023/01/21 01:33:06;;;;;;;30.00;13.30;;;;;;;-1.41;100.00;100786.84;109523;1252;60285;-69
2023/01/21 01:35:54;;;;;;;31.20;13.20;;;;;;;-1.38;100.00;100786.79;108758;1252;1002780;-70
2023/01/21 01:38:42;;;;;;;31.70;12.30;;;;;;;-1.32;100.00;100788.45;109520;1252;66362;-69
2023/01/21 01:41:34;;;;;;;29.40;12.90;;;;;;;-1.28;100.00;100789.40;109511;1253;71550;-69
2023/01/21 01:45:01;;;;;;;33.40;13.50;;;;;;;-1.23;100.00;100785.30;109537;1253;58678;-68
2023/01/21 01:48:02;;;;;;;24.20;10.00;;;;;;;-1.17;100.00;100786.09;109503;1253;57684;-71
2023/01/21 01:50:50;;;;;;;29.10;11.70;;;;;;;-1.12;100.00;100787.91;108755;1252;1002267;-71
2023/01/21 01:53:42;;;;;;;27.30;10.30;;;;;;;-1.08;100.00;100783.32;109545;1252;68330;-70
2023/01/21 01:56:30;;;;;;;26.80;10.70;;;;;;;-1.05;100.00;100786.03;109540;1252;72833;-70
2023/01/21 01:59:18;;;;;;;21.40;9.40;;;;;;;-0.99;100.00;100784.20;109546;1252;57306;-71
2023/01/21 02:02:10;;;;;;;18.40;7.50;;;;;;;-0.93;100.00;100788.29;109530;1253;60096;-72
2023/01/21 02:05:04;;;;;;;20.20;8.00;;;;;;;-0.85;100.00;100782.02;109551;1252;72831;-70
2023/01/21 02:07:51;;;;;;;16.20;6.90;;;;;;;-0.78;100.00;100786.05;109478;1253;66096;-70
2023/01/21 02:10:39;;;;;;;14.90;6.20;;;;;;;-0.73;100.00;100783.00;109507;1253;71408;-70
2023/01/21 02:13:30;;;;;;;17.50;6.80;;;;;;;-0.69;100.00;100778.04;109514;1252;58716;-70
2023/01/21 02:16:54;;;;;;;15.30;5.90;;;;;;;-0.63;100.00;100778.64;109535;1253;59535;-69
2023/01/21 02:20:20;;;;;;;15.20;5.80;;;;;;;-0.57;100.00;100783.22;109536;1253;72871;-71
2023/01/21 02:23:32;;;;;;;14.70;5.50;;;;;;;-0.52;100.00;100784.16;109446;1252;66468;-70
2023/01/21 02:26:26;;;;;;;15.40;5.70;;;;;;;-0.46;100.00;100786.14;109537;1253;73675;-69
2023/01/21 02:29:59;;;;;;;15.20;6.00;;;;;;;-0.41;100.00;100792.65;109422;1253;57355;-70
2023/01/21 02:33:17;;;;;;;15.30;5.90;;;;;;;-0.33;100.00;100795.46;109564;1252;60077;-70
2023/01/21 02:36:40;;;;;;;13.10;5.90;;;;;;;-0.27;100.00;100808.59;109518;1252;71921;-72
2023/01/21 02:39:47;;;;;;;14.50;5.70;;;;;;;-0.19;100.00;100824.45;109456;1253;69163;-72
2023/01/21 02:42:45;;;;;;;12.40;4.20;;;;;;;-0.13;100.00;100824.68;109493;1253;72984;-70
2023/01/21 02:45:45;;;;;;;14.10;4.80;;;;;;;-0.08;100.00;100828.58;109569;1253;57330;-69
2023/01/21 02:48:44;;;;;;;12.50;3.90;;;;;;;-0.04;100.00;100822.93;109543;1258;60453;-70
2023/01/21 02:51:33;;;;;;;10.50;3.60;;;;;;;0.04;100.00;100824.85;109466;1253;71908;-70
2023/01/21 02:54:39;;;;;;;9.40;3.30;;;;;;;0.11;100.00;100825.73;109516;1253;66849;-70
2023/01/21 02:57:46;;;;;;;10.20;3.30;;;;;;;0.17;99.98;100828.92;109354;1253;229103;-70
2023/01/21 03:01:06;;;;;;;9.70;3.50;;;;;;;0.25;99.42;100834.14;109336;1253;58974;-71
2023/01/21 03:04:01;;;;;;;8.70;2.50;;;;;;;0.33;98.90;100838.33;109492;1253;60058;-70
2023/01/21 03:07:12;;;;;;;11.40;4.00;;;;;;;0.37;98.21;100837.54;109383;1253;72886;-69
2023/01/21 03:10:13;;;;;;;9.20;3.80;;;;;;;0.44;98.31;100846.29;109574;1253;69009;-71
2023/01/21 03:13:10;;;;;;;8.90;3.60;;;;;;;0.49;97.96;100840.59;109442;1253;72820;-70
2023/01/21 03:19:08;;;;;;;11.00;3.40;;;;;;;0.58;97.62;100843.86;109536;1253;60505;-70
2023/01/21 03:21:59;;;;;;;10.10;3.50;;;;;;;0.63;97.56;100851.08;109375;1253;73180;-70
2023/01/21 03:24:51;;;;;;;7.90;3.20;;;;;;;0.70;97.56;100852.84;109580;1252;67643;-70
2023/01/21 03:27:43;;;;;;;9.70;2.90;;;;;;;0.73;97.29;100848.57;109495;1252;71187;-70
2023/01/21 03:30:34;;;;;;;9.50;3.60;;;;;;;0.77;96.69;100845.17;109288;1253;58914;-70
2023/01/21 03:33:24;;;;;;;9.70;3.60;;;;;;;0.80;96.25;100848.58;109297;1253;59029;-71
2023/01/21 03:36:25;;;;;;;11.40;3.30;;;;;;;0.81;95.58;100855.35;109495;1253;70594;-69
2023/01/21 03:39:38;;;;;;;9.90;3.10;;;;;;;0.83;95.32;100850.24;109553;1253;67839;-69
2023/01/21 03:42:26;;;;;;;8.80;2.80;;;;;;;0.83;95.05;100843.94;109516;1253;73853;-69
2023/01/21 03:45:14;;;;;;;8.60;2.80;;;;;;;0.84;94.54;100837.27;109533;1253;57617;-70
2023/01/21 03:48:42;;;;;;;6.00;2.20;;;;;;;0.88;94.81;100847.66;109535;1253;59408;-68
2023/01/21 03:51:36;;;;;;;5.80;1.90;;;;;;;0.91;94.17;100858.61;109353;1252;74246;-68
2023/01/21 03:54:24;;;;;;;10.10;2.50;;;;;;;0.91;93.55;100858.26;109349;1253;69062;-68
2023/01/21 03:57:13;;;;;;;7.30;2.30;;;;;;;0.92;93.49;100857.88;109495;1252;73966;-69
2023/01/21 04:00:01;;;;;;;8.10;2.30;;;;;;;0.93;93.16;100860.14;109525;1253;58846;-69
2023/01/21 04:02:51;;;;;;;7.40;2.00;;;;;;;0.95;92.60;100860.61;109571;1253;60207;-70
2023/01/21 04:05:39;;;;;;;6.90;1.80;;;;;;;0.96;92.05;100856.04;109516;1253;74251;-69
2023/01/21 04:08:27;;;;;;;9.20;1.80;;;;;;;0.93;91.43;100857.68;109525;1253;67810;-69
2023/01/21 04:11:15;;;;;;;6.20;1.50;;;;;;;0.99;91.34;100863.14;109500;1253;72795;-68
2023/01/21 04:14:04;;;;;;;6.50;1.80;;;;;;;1.01;90.79;100857.14;109521;1253;58595;-68
2023/01/21 04:16:51;;;;;;;6.50;1.60;;;;;;;1.01;90.42;100866.22;109518;1253;60020;-69
2023/01/21 04:19:39;;;;;;;6.90;1.30;;;;;;;1.05;90.03;100879.77;109528;1252;72608;-73
2023/01/21 04:22:27;;;;;;;8.50;1.90;;;;;;;1.07;90.04;100878.13;109582;1252;68160;-71
2023/01/21 04:25:15;;;;;;;6.60;1.50;;;;;;;1.08;89.60;100868.33;109508;1253;72478;-71
2023/01/21 04:28:03;;;;;;;6.40;1.60;;;;;;;1.08;89.24;100869.71;108807;1252;1002176;-72
2023/01/21 04:30:51;;;;;;;8.70;1.40;;;;;;;1.09;88.87;100867.09;109503;1253;59802;-70
2023/01/21 04:33:39;;;;;;;9.00;2.20;;;;;;;1.11;88.74;100880.66;109535;1253;74340;-71
2023/01/21 04:36:27;;;;;;;6.20;1.50;;;;;;;1.13;88.35;100883.41;109525;1253;67637;-71
2023/01/21 04:39:15;;;;;;;9.00;2.10;;;;;;;1.10;88.17;100874.22;109532;1253;72008;-69
2023/01/21 04:42:04;;;;;;;6.90;1.80;;;;;;;1.14;88.40;100880.74;109551;1252;57357;-71
2023/01/21 04:44:51;;;;;;;7.00;1.50;;;;;;;1.15;88.37;100880.36;109512;1252;60101;-71
2023/01/21 04:47:42;;;;;;;8.50;1.80;;;;;;;1.19;88.00;100883.94;109511;1253;72733;-71
2023/01/21 04:50:29;;;;;;;6.00;1.40;;;;;;;1.22;87.87;100887.20;109426;1253;67866;-70
2023/01/21 04:53:17;;;;;;;7.40;1.80;;;;;;;1.23;87.98;100890.84;109517;1253;72868;-71
2023/01/21 04:56:05;;;;;;;6.10;1.60;;;;;;;1.24;88.08;100890.11;109525;1253;59968;-69
2023/01/21 04:58:53;;;;;;;7.40;1.60;;;;;;;1.25;87.87;100890.26;109565;1253;60482;-71
2023/01/21 05:01:41;;;;;;;7.50;2.20;;;;;;;1.25;87.90;100885.89;109555;1253;72271;-70
2023/01/21 05:04:31;;;;;;;9.30;1.80;;;;;;;1.23;87.76;100888.02;109531;1253;66134;-69
2023/01/21 05:07:19;;;;;;;6.70;1.80;;;;;;;1.22;86.88;100890.36;109526;1252;72824;-73
2023/01/21 05:10:15;;;;;;;8.80;1.60;;;;;;;1.22;86.42;100888.95;109520;1253;57393;-70
2023/01/21 05:13:03;;;;;;;6.30;1.70;;;;;;;1.21;86.03;100882.16;109503;1252;60119;-70
2023/01/21 05:15:51;;;;;;;5.80;1.60;;;;;;;1.21;86.08;100884.08;109530;1252;73240;-68
2023/01/21 05:18:39;;;;;;;6.30;1.70;;;;;;;1.20;85.21;100880.61;109544;1253;67815;-68
2023/01/21 05:21:27;;;;;;;6.30;1.50;;;;;;;1.21;84.49;100878.67;109556;1253;71118;-69
2023/01/21 05:24:16;;;;;;;6.40;1.40;;;;;;;1.19;84.54;100894.09;109546;1253;57319;-69
2023/01/21 05:27:03;;;;;;;7.50;1.50;;;;;;;1.16;84.27;100891.88;109516;1252;59107;-70
2023/01/21 05:29:52;;;;;;;8.80;2.40;;;;;;;1.13;83.48;100891.95;109562;1256;71289;-70
2023/01/21 05:32:39;;;;;;;5.90;1.60;;;;;;;1.07;83.37;100877.27;109512;1253;67793;-69
2023/01/21 05:35:27;;;;;;;8.40;1.40;;;;;;;1.14;83.46;100881.27;109503;1256;73936;-70
2023/01/21 05:38:16;;;;;;;7.30;1.70;;;;;;;1.13;83.41;100889.34;109508;1257;57426;-70
2023/01/21 05:41:04;;;;;;;8.20;1.70;;;;;;;1.11;83.04;100880.64;109503;1252;61259;-70
2023/01/21 05:43:52;;;;;;;5.90;1.60;;;;;;;1.15;83.45;100885.98;109550;1253;72015;-70
2023/01/21 05:46:40;;;;;;;6.50;1.40;;;;;;;1.16;83.29;100890.84;109557;1253;65742;-70
2023/01/21 05:49:27;;;;;;;8.40;1.60;;;;;;;1.14;82.42;100885.30;109556;1254;72771;-70
2023/01/21 05:52:15;;;;;;;6.00;1.40;;;;;;;1.12;82.24;100886.92;109515;1252;58213;-70
2023/01/21 05:55:04;;;;;;;5.10;1.70;;;;;;;1.07;82.10;100892.13;109564;1252;60097;-70
2023/01/21 05:57:52;;;;;;;6.20;1.60;;;;;;;1.11;82.10;100893.95;109434;1253;73175;-72
2023/01/21 06:00:40;;;;;;;6.50;1.70;;;;;;;1.05;81.92;100879.23;108723;1254;1002490;-73
2023/01/21 06:03:28;;;;;;;9.00;1.60;;;;;;;1.07;81.87;100890.20;109399;1253;73801;-70
2023/01/21 06:06:17;;;;;;;6.90;1.60;;;;;;;1.06;82.14;100900.19;109406;1252;57299;-69
2023/01/21 06:09:04;;;;;;;6.30;1.60;;;;;;;1.04;81.93;100890.81;109512;1253;59108;-70
2023/01/21 06:11:52;;;;;;;5.80;1.60;;;;;;;1.04;81.71;100893.94;109534;1253;74241;-71
2023/01/21 06:14:40;;;;;;;8.40;1.80;;;;;;;1.04;82.11;100888.35;109541;1252;66546;-71
2023/01/21 06:17:28;;;;;;;6.20;1.50;;;;;;;1.02;82.30;100889.45;109459;1253;72193;-71
2023/01/21 06:20:16;;;;;;;5.20;1.60;;;;;;;0.99;81.91;100888.64;109441;1254;57637;-72
2023/01/21 06:23:05;;;;;;;8.80;1.90;;;;;;;0.99;81.54;100887.23;109543;1253;59174;-72
2023/01/21 06:25:58;;;;;;;7.20;2.10;;;;;;;1.01;81.32;100887.73;109552;1253;73356;-71
2023/01/21 06:28:46;;;;;;;5.20;1.40;;;;;;;1.00;81.09;100891.42;109506;1254;68072;-71
2023/01/21 06:31:34;;;;;;;8.20;1.70;;;;;;;0.98;80.79;100882.73;109454;1257;72630;-70
2023/01/21 06:34:22;;;;;;;6.50;1.60;;;;;;;0.96;80.53;100881.54;109492;1253;57348;-72
2023/01/21 06:37:09;;;;;;;7.10;1.70;;;;;;;0.98;81.15;100883.43;109456;1252;61495;-70
2023/01/21 06:39:57;;;;;;;6.40;1.60;;;;;;;0.98;81.47;100892.34;109410;1251;73198;-69
2023/01/21 06:42:48;;;;;;;6.90;1.80;;;;;;;0.98;81.57;100893.21;109464;1253;67826;-69
2023/01/21 06:45:35;;;;;;;6.90;1.90;;;;;;;1.00;81.70;100898.75;109441;1253;73881;-70
2023/01/21 06:48:23;;;;;;;9.10;2.00;;;;;;;1.00;81.52;100897.70;109466;1252;57657;-72
2023/01/21 06:51:11;;;;;;;6.70;1.40;;;;;;;0.99;81.06;100901.20;109549;1253;59235;-72
2023/01/21 06:53:59;;;;;;;7.40;1.90;;;;;;;0.99;80.88;100901.93;109513;1253;74008;-70
2023/01/21 06:56:47;;;;;;;5.30;1.40;;;;;;;0.98;80.70;100894.44;109457;1253;68026;-67
2023/01/21 06:59:35;;;;;;;7.40;1.70;;;;;;;0.99;80.60;100898.95;109476;1253;70315;-71
2023/01/21 07:02:23;;;;;;;8.20;1.90;;;;;;;0.99;80.55;100902.44;109427;1254;57443;-68
2023/01/21 07:05:13;;;;;;;7.90;2.10;;;;;;;1.00;80.65;100912.21;109449;1254;61120;-70
2023/01/21 07:08:02;;;;;;;7.80;2.00;;;;;;;1.01;80.97;100917.95;109450;1253;73030;-69
2023/01/21 07:10:50;;;;;;;4.80;1.30;;;;;;;1.01;80.81;100913.42;109473;1254;67880;-70
2023/01/21 07:13:38;;;;;;;7.60;1.50;;;;;;;1.00;80.60;100914.14;109425;1254;71650;-70
2023/01/21 07:16:26;;;;;;;6.60;1.30;;;;;;;0.97;80.19;100901.45;109540;1254;57306;-69
2023/01/21 07:19:14;;;;;;;9.50;1.60;;;;;;;0.97;80.28;100904.59;109557;1252;59009;-70
2023/01/21 07:22:02;;;;;;;6.30;1.60;;;;;;;0.97;80.58;100916.13;109486;1254;72726;-70
2023/01/21 07:24:50;;;;;;;5.50;1.30;;;;;;;0.98;80.39;100915.06;109555;1253;66716;-72
2023/01/21 07:27:39;;;;;;;6.40;1.80;;;;;;;0.94;80.15;100909.05;109496;1252;73690;-72
2023/01/21 07:30:27;;;;;;;7.50;1.60;;;;;;;0.97;80.13;100919.96;109519;1252;57828;-75
2023/01/21 07:33:15;;;;;;;6.70;1.40;;;;;;;0.97;79.43;100920.66;108791;1253;1002286;-74
2023/01/21 07:36:04;;;;;;;6.40;1.80;;;;;;;1.00;79.41;100923.40;109553;1253;73120;-72
2023/01/21 07:38:52;;;;;;;9.80;1.40;;;;;;;0.98;79.08;100908.77;108824;1254;1002680;-75
2023/01/21 07:41:40;;;;;;;5.20;1.40;;;;;;;1.07;79.13;100909.98;108740;1253;1003046;-75
2023/01/21 07:44:32;;;;;;;9.40;1.70;;;;;;;1.10;79.16;100910.23;109510;1254;57320;-75
2023/01/21 07:47:21;;;;;;;11.00;2.00;;;;;;;1.11;77.94;100907.39;108652;1255;1002350;-74
2023/01/21 07:50:09;;;;;;;9.10;1.70;;;;;;;1.11;77.51;100907.92;108695;1254;1002934;-71
2023/01/21 07:52:58;;;;;;;5.00;1.30;;;;;;;1.09;77.73;100912.16;109562;1252;68037;-72
2023/01/21 07:55:46;;;;;;;7.60;1.50;;;;;;;1.09;78.41;100912.50;109458;1254;71477;-74
2023/01/21 07:58:35;;;;;;;4.80;1.30;;;;;;;1.09;79.00;100912.51;109515;1254;57803;-71
2023/01/21 08:01:27;;;;;;;8.20;1.40;;;;;;;1.07;78.72;100910.29;109523;1253;59506;-72
2023/01/21 08:04:15;;;;;;;5.80;1.50;;;;;;;1.09;78.96;100918.98;109453;1254;72414;-73
2023/01/21 08:07:07;;;;;;;11.90;1.90;;;;;;;1.09;79.06;100922.65;109523;1252;68017;-71
2023/01/21 08:09:59;;;;;;;6.70;1.50;;;;;;;1.10;79.03;100918.43;109540;1253;72303;-71
2023/01/21 08:12:47;;;;;;;7.00;1.60;;;;;;;1.10;78.51;100917.58;109400;1252;59065;-71
2023/01/21 08:15:35;;;;;;;8.40;1.40;;;;;;;1.13;78.64;100919.94;109461;1253;59959;-70
2023/01/21 08:18:23;;;;;;;6.30;1.50;;;;;;;1.15;79.14;100925.14;109554;1253;72944;-72
2023/01/21 08:21:11;;;;;;;6.70;1.90;;;;;;;1.18;79.30;100931.70;109583;1253;67792;-71
2023/01/21 08:23:59;;;;;;;8.30;1.80;;;;;;;1.22;79.75;100926.87;109546;1252;72304;-74
2023/01/21 08:26:47;;;;;;;6.80;1.60;;;;;;;1.23;78.76;100923.02;109453;1253;57408;-71
2023/01/21 08:29:35;;;;;;;7.60;1.60;;;;;;;1.25;78.09;100925.41;109493;1252;60405;-71
2023/01/21 08:32:23;;;;;;;6.00;1.40;;;;;;;1.25;77.73;100925.60;109561;1253;71783;-74
2023/01/21 08:35:11;;;;;;;9.70;1.70;;;;;;;1.21;77.28;100916.06;109539;1253;69154;-71
2023/01/21 08:38:01;;;;;;;6.20;1.40;;;;;;;1.26;76.99;100926.95;109449;1253;73399;-77
2023/01/21 08:40:49;;;;;;;8.40;1.50;;;;;;;1.29;77.19;100926.89;108720;1253;1002892;-72
2023/01/21 08:43:37;;;;;;;7.90;1.80;;;;;;;1.29;77.13;100927.74;109509;1252;58955;-71
2023/01/21 08:46:25;;;;;;;4.50;1.20;;;;;;;1.29;77.34;100928.27;109484;1253;74465;-72
2023/01/21 08:49:12;;;;;;;4.30;1.10;;;;;;;1.31;76.96;100927.89;109473;1251;68029;-73
2023/01/21 08:52:01;;;;;;;8.10;1.50;;;;;;;1.34;77.00;100929.90;109370;1253;71356;-74
2023/01/21 08:54:49;;;;;;;5.20;1.20;;;;;;;1.39;77.17;100938.02;108760;1253;1002177;-73
2023/01/21 08:57:37;;;;;;;6.20;1.30;;;;;;;1.41;77.28;100938.81;109523;1253;60041;-75
2023/01/21 09:00:25;;;;;;;6.40;1.80;;;;;;;1.43;77.49;100933.36;109531;1254;73189;-73
2023/01/21 09:03:15;;;;;;;4.70;1.10;;;;;;;1.43;78.13;100923.73;109478;1254;68069;-74
2023/01/21 09:06:05;;;;;;;6.10;1.40;;;;;;;1.40;77.90;100915.77;109561;1253;73828;-72
2023/01/21 09:08:54;;;;;;;6.10;1.60;;;;;;;1.41;77.81;100917.83;109331;1254;57350;-70
2023/01/21 09:11:42;;;;;;;8.60;1.60;;;;;;;1.43;77.88;100917.79;109424;1254;58925;-71
2023/01/21 09:14:31;;;;;;;7.60;2.00;;;;;;;1.47;78.33;100912.25;109442;1254;72326;-75
2023/01/21 09:17:19;;;;;;;6.40;1.70;;;;;;;1.49;78.59;100906.44;109509;1253;68220;-72
2023/01/21 09:20:08;;;;;;;8.30;1.80;;;;;;;1.52;78.38;100911.24;109349;1253;71332;-73
2023/01/21 09:22:57;;;;;;;6.50;2.10;;;;;;;1.58;78.20;100912.14;109391;1253;57335;-74
2023/01/21 09:25:45;;;;;;;7.30;2.00;;;;;;;1.62;78.39;100912.55;109439;1253;60952;-74
2023/01/21 09:28:37;;;;;;;5.30;1.40;;;;;;;1.64;78.45;100908.82;109193;1254;73120;-74
2023/01/21 09:31:28;;;;;;;5.90;1.60;;;;;;;1.64;78.29;100905.30;109239;1254;67942;-70
2023/01/21 09:34:16;;;;;;;7.20;1.80;;;;;;;1.65;78.72;100903.73;109408;1253;72904;-71
2023/01/21 09:37:04;;;;;;;7.40;2.20;;;;;;;1.65;78.91;100899.70;109471;1254;57343;-72
2023/01/21 09:39:52;;;;;;;9.30;1.90;;;;;;;1.64;79.33;100890.46;109548;1253;58776;-74
2023/01/21 09:42:41;;;;;;;8.30;1.70;;;;;;;1.61;79.73;100888.61;109482;1253;71733;-69
2023/01/21 09:45:29;;;;;;;8.80;1.90;;;;;;;1.61;80.17;100886.17;109501;1253;68016;-71
2023/01/21 09:48:31;;;;;;;8.50;1.80;;;;;;;1.54;80.66;100877.77;109512;1254;72740;-70
2023/01/21 09:51:39;;;;;;;7.40;1.90;;;;;;;1.57;80.78;100888.20;109422;1253;57328;-72
2023/01/21 09:54:31;;;;;;;8.20;1.80;;;;;;;1.55;81.12;100878.10;109543;1252;61812;-72
2023/01/21 09:57:24;;;;;;;7.80;2.10;;;;;;;1.56;81.59;100881.40;109524;1251;74280;-73
2023/01/21 10:00:44;;;;;;;8.50;2.10;;;;;;;1.60;81.96;100877.28;108778;1252;1002315;-74
2023/01/21 10:03:55;;;;;;;7.20;1.90;;;;;;;1.62;82.45;100878.78;109477;1253;72519;-75
2023/01/21 10:06:53;;;;;;;6.60;1.80;;;;;;;1.66;82.77;100875.55;109259;1254;57466;-73
2023/01/21 10:10:03;;;;;;;8.10;2.20;;;;;;;1.67;82.54;100866.74;109222;1254;58956;-75
2023/01/21 10:13:03;;;;;;;6.70;1.70;;;;;;;1.70;82.73;100862.13;108548;1254;1002266;-71
2023/01/21 10:16:03;;;;;;;9.90;2.10;;;;;;;1.70;82.80;100856.52;109358;1254;68176;-73
2023/01/21 10:18:54;;;;;;;6.30;1.80;;;;;;;1.68;82.74;100864.27;109091;1257;72945;-74
2023/01/21 10:21:49;;;;;;;7.00;1.60;;;;;;;1.67;82.91;100852.41;109224;1255;57352;-70
2023/01/21 10:24:53;;;;;;;9.30;2.00;;;;;;;1.66;83.38;100856.80;108440;1256;1002990;-73
2023/01/21 10:27:42;;;;;;;7.90;1.90;;;;;;;1.60;83.95;100858.55;109083;1256;73798;-72
2023/01/21 10:30:46;;;;;;;8.30;2.10;;;;;;;1.60;84.07;100854.16;109031;1256;67724;-73
2023/01/21 10:33:33;;;;;;;8.60;2.20;;;;;;;1.59;84.35;100848.44;109094;1256;73857;-72
2023/01/21 10:36:31;;;;;;;7.50;1.90;;;;;;;1.57;84.57;100843.09;109226;1256;57290;-72
2023/01/21 10:39:39;;;;;;;8.50;1.90;;;;;;;1.53;84.20;100850.16;109295;1252;60530;-70
2023/01/21 10:42:59;;;;;;;7.40;1.80;;;;;;;1.52;84.58;100852.64;109368;1252;71637;-73
2023/01/21 10:46:24;;;;;;;5.30;1.50;;;;;;;1.50;85.03;100845.36;109446;1252;67793;-72
2023/01/21 10:49:27;;;;;;;7.50;2.00;;;;;;;1.52;85.73;100854.23;109406;1253;71382;-75
2023/01/21 10:52:33;;;;;;;11.00;2.40;;;;;;;1.52;85.81;100844.61;109503;1252;60031;-71
2023/01/21 10:55:49;;;;;;;9.30;2.00;;;;;;;1.53;85.68;100848.05;109497;1253;60431;-72
2023/01/21 10:59:09;;;;;;;6.60;1.80;;;;;;;1.55;86.13;100842.23;109501;1252;72664;-73
2023/01/21 11:02:31;;;;;;;7.90;1.50;;;;;;;1.59;86.20;100846.52;109479;1252;67097;-74
2023/01/21 11:05:20;;;;;;;6.40;1.80;;;;;;;1.60;86.03;100831.27;109469;1252;73061;-71
2023/01/21 11:08:17;;;;;;;7.50;2.00;;;;;;;1.60;86.00;100830.20;109494;1252;57335;-71
2023/01/21 11:11:07;;;;;;;8.30;2.20;;;;;;;1.63;86.28;100814.38;109476;1253;58905;-75
2023/01/21 11:13:56;;;;;;;8.30;2.00;;;;;;;1.67;86.27;100820.90;109477;1253;74194;-73
2023/01/21 11:16:49;;;;;;;7.30;1.80;;;;;;;1.70;85.97;100813.30;109517;1252;67762;-71
2023/01/21 11:19:36;;;;;;;7.00;1.70;;;;;;;1.76;85.40;100813.15;109455;1253;73896;-70
2023/01/21 11:22:30;;;;;;;9.80;2.30;;;;;;;1.80;85.47;100816.17;109552;1252;57343;-71
2023/01/21 11:25:27;;;;;;;7.50;2.10;;;;;;;1.80;85.64;100811.79;109499;1252;57744;-73
2023/01/21 11:28:28;;;;;;;6.00;1.90;;;;;;;1.77;85.37;100812.41;109534;1252;71863;-72
2023/01/21 11:31:31;;;;;;;8.80;1.90;;;;;;;1.71;85.02;100807.70;109526;1251;69115;-72
2023/01/21 11:34:22;;;;;;;7.00;2.10;;;;;;;1.68;84.92;100808.12;109571;1252;70590;-72
2023/01/21 11:37:20;;;;;;;7.20;1.60;;;;;;;1.66;85.22;100803.30;109516;1253;58423;-71
2023/01/21 11:40:22;;;;;;;8.60;2.30;;;;;;;1.67;85.64;100807.44;109477;1252;59099;-72
2023/01/21 11:43:32;;;;;;;9.20;1.90;;;;;;;1.68;85.76;100807.76;109409;1252;73797;-72
2023/01/21 11:46:37;;;;;;;6.80;1.80;;;;;;;1.64;86.06;100811.55;109533;1252;68814;-71
2023/01/21 11:49:29;;;;;;;7.30;2.00;;;;;;;1.59;86.03;100811.88;109423;1253;72380;-72
2023/01/21 11:52:19;;;;;;;9.20;1.90;;;;;;;1.57;85.92;100815.24;109487;1252;57542;-74
2023/01/21 11:55:22;;;;;;;9.60;2.50;;;;;;;1.55;86.16;100818.44;109505;1252;61145;-72
2023/01/21 11:58:18;;;;;;;7.00;1.90;;;;;;;1.53;86.50;100816.77;109368;1252;73161;-71
2023/01/21 12:01:20;;;;;;;7.90;2.40;;;;;;;1.47;86.34;100810.11;109447;1252;69103;-71
2023/01/21 12:04:14;;;;;;;8.60;1.90;;;;;;;1.46;86.30;100811.71;109401;1251;72863;-74
2023/01/21 12:07:04;;;;;;;7.60;1.90;;;;;;;1.46;86.90;100818.36;109568;1252;57619;-72
2023/01/21 12:10:22;;;;;;;6.40;1.70;;;;;;;1.48;86.85;100804.66;109549;1252;60123;-71
2023/01/21 12:13:25;;;;;;;7.50;2.00;;;;;;;1.50;86.69;100811.95;109537;1252;72799;-73
2023/01/21 12:17:03;;;;;;;9.30;2.00;;;;;;;1.49;86.47;100808.84;109592;1251;69346;-71
2023/01/21 12:20:20;;;;;;;9.30;2.30;;;;;;;1.47;86.64;100808.38;108962;1259;72643;-72
2023/01/21 12:23:20;;;;;;;9.60;2.30;;;;;;;1.47;85.92;100810.99;109041;1259;60089;-73
2023/01/21 12:26:44;;;;;;;11.30;2.50;;;;;;;1.46;85.82;100817.14;109032;1259;60206;-73
2023/01/21 12:30:18;;;;;;;9.70;2.50;;;;;;;1.46;85.99;100817.48;108971;1259;71471;-73
2023/01/21 12:33:40;;;;;;;9.50;3.00;;;;;;;1.47;85.48;100819.90;109047;1259;68873;-72
2023/01/21 12:36:40;;;;;;;10.60;2.70;;;;;;;1.49;85.11;100823.85;109021;1259;71411;-74
2023/01/21 12:39:36;;;;;;;6.60;1.80;;;;;;;1.50;84.97;100827.16;108893;1259;59574;-72
2023/01/21 12:42:36;;;;;;;7.30;2.20;;;;;;;1.49;85.25;100823.88;108940;1259;61030;-73
2023/01/21 12:45:35;;;;;;;7.80;2.20;;;;;;;1.48;85.13;100818.98;108904;1259;71837;-73
2023/01/21 12:49:20;;;;;;;10.20;2.10;;;;;;;1.44;84.79;100818.61;108950;1259;66844;-73
2023/01/21 12:52:40;;;;;;;7.40;2.00;;;;;;;1.41;84.53;100827.43;108900;1259;72476;-77
2023/01/21 12:56:16;;;;;;;10.20;2.20;;;;;;;1.36;84.17;100816.34;109189;1252;57606;-73
2023/01/21 12:59:07;;;;;;;9.90;2.20;;;;;;;1.38;84.24;100825.06;109116;1256;59620;-71
2023/01/21 13:02:04;;;;;;;8.20;2.10;;;;;;;1.38;83.85;100823.84;109085;1257;73104;-72
2023/01/21 13:05:16;;;;;;;9.30;1.50;;;;;;;1.36;83.97;100827.02;109147;1256;66875;-71
2023/01/21 13:08:29;;;;;;;6.60;1.90;;;;;;;1.39;84.35;100828.35;109164;1256;72719;-71
2023/01/21 13:11:30;;;;;;;7.40;1.80;;;;;;;1.39;84.66;100829.21;109005;1259;57888;-73
2023/01/21 13:14:39;;;;;;;10.50;2.20;;;;;;;1.42;85.00;100833.87;109096;1256;60065;-72
2023/01/21 13:17:36;;;;;;;6.60;2.10;;;;;;;1.43;85.09;100831.02;109089;1257;73650;-73
2023/01/21 13:20:25;;;;;;;9.20;2.00;;;;;;;1.38;85.26;100818.21;109136;1256;67327;-71
2023/01/21 13:23:42;;;;;;;6.80;1.80;;;;;;;1.43;85.45;100837.16;109166;1256;72382;-72